JZA215 CYYG-CYUL
Flight info
| Callsign | JZA215 |
|---|---|
| Flight time | 1h 22m |
| Altitude | 38000 |
| Route | IKURO Q858 DULBA DCT KEBIG ROCKT3 |
| Aircraft | CRJ9/M-SDFGIRWY/S |
Departure
| Time | 2026-04-11 09:56 |
|---|---|
| Airport | Charlottetown Airport (CYYG) |
Arrival
| Time | 2026-04-11 11:18 |
|---|---|
| Airport | Montreal / Pierre Elliott Trudeau International Airport (CYUL) |
| Time | Latitude | Longitude | Altitude | Speed | Heading |
|---|---|---|---|---|---|
| 2026-04-11 09:30 | 46.28622 | -63.13015 | 216 ft | 0 kts | 280° |
| 2026-04-11 09:31 | 46.28622 | -63.13016 | 216 ft | 0 kts | 280° |
| 2026-04-11 09:38 | 46.28622 | -63.13017 | 179 ft | 0 kts | 280° |
| 2026-04-11 09:43 | 46.28623 | -63.13017 | 179 ft | 0 kts | 280° |
| 2026-04-11 09:45 | 46.28623 | -63.13018 | 179 ft | 0 kts | 280° |
| 2026-04-11 09:46 | 46.28623 | -63.13013 | 178 ft | 4 kts | 285° |
| 2026-04-11 09:47 | 46.28617 | -63.12981 | 175 ft | 4 kts | 302° |
| 2026-04-11 09:47 | 46.28598 | -63.12962 | 174 ft | 4 kts | 348° |
| 2026-04-11 09:47 | 46.28581 | -63.12962 | 173 ft | 1 kts | 10° |
| 2026-04-11 09:50 | 46.28587 | -63.12960 | 173 ft | 2 kts | 10° |
| 2026-04-11 09:50 | 46.28603 | -63.12956 | 173 ft | 3 kts | 10° |
| 2026-04-11 09:50 | 46.28630 | -63.12949 | 174 ft | 5 kts | 14° |
| 2026-04-11 09:51 | 46.28661 | -63.12914 | 174 ft | 8 kts | 66° |
| 2026-04-11 09:51 | 46.28657 | -63.12794 | 167 ft | 16 kts | 99° |
| 2026-04-11 09:51 | 46.28642 | -63.12651 | 163 ft | 10 kts | 99° |
| 2026-04-11 09:51 | 46.28696 | -63.12574 | 164 ft | 15 kts | 12° |
| 2026-04-11 09:52 | 46.28816 | -63.12546 | 167 ft | 19 kts | 8° |
| 2026-04-11 09:52 | 46.28966 | -63.12513 | 168 ft | 24 kts | 8° |
| 2026-04-11 09:52 | 46.29133 | -63.12476 | 168 ft | 24 kts | 9° |
| 2026-04-11 09:52 | 46.29301 | -63.12439 | 167 ft | 25 kts | 9° |
| 2026-04-11 09:53 | 46.29470 | -63.12401 | 167 ft | 25 kts | 9° |
| 2026-04-11 09:53 | 46.29642 | -63.12363 | 169 ft | 25 kts | 8° |
| 2026-04-11 09:53 | 46.29773 | -63.12322 | 171 ft | 14 kts | 18° |
| 2026-04-11 09:53 | 46.29831 | -63.12294 | 170 ft | 6 kts | 18° |
| 2026-04-11 09:54 | 46.29849 | -63.12299 | 169 ft | 0 kts | 306° |
| 2026-04-11 09:54 | 46.29849 | -63.12307 | 169 ft | 2 kts | 257° |
| 2026-04-11 09:54 | 46.29843 | -63.12316 | 169 ft | 1 kts | 204° |
| 2026-04-11 09:54 | 46.29840 | -63.12317 | 169 ft | 0 kts | 191° |
| 2026-04-11 09:55 | 46.29776 | -63.12332 | 171 ft | 34 kts | 188° |
| 2026-04-11 09:55 | 46.29315 | -63.12435 | 167 ft | 97 kts | 189° |
| 2026-04-11 09:55 | 46.28481 | -63.12620 | 176 ft | 142 kts | 189° |
| 2026-04-11 09:55 | 46.27489 | -63.12874 | 677 ft | 145 kts | 188° |
| 2026-04-11 09:56 | 46.26488 | -63.13117 | 1369 ft | 144 kts | 190° |
| 2026-04-11 09:56 | 46.25444 | -63.13307 | 1706 ft | 169 kts | 190° |
| 2026-04-11 09:56 | 46.24207 | -63.13531 | 2203 ft | 187 kts | 191° |
| 2026-04-11 09:56 | 46.22899 | -63.13742 | 3047 ft | 191 kts | 190° |
| 2026-04-11 09:57 | 46.21560 | -63.13936 | 3878 ft | 199 kts | 191° |
| 2026-04-11 09:57 | 46.20136 | -63.14340 | 4373 ft | 216 kts | 210° |
| 2026-04-11 09:57 | 46.19061 | -63.15883 | 4981 ft | 228 kts | 244° |
| 2026-04-11 09:57 | 46.18733 | -63.18175 | 5787 ft | 237 kts | 261° |
| 2026-04-11 09:58 | 46.18601 | -63.20522 | 6748 ft | 240 kts | 265° |
| 2026-04-11 09:58 | 46.18665 | -63.22957 | 7627 ft | 245 kts | 269° |
| 2026-04-11 09:58 | 46.18810 | -63.25433 | 8500 ft | 249 kts | 270° |
| 2026-04-11 09:58 | 46.18979 | -63.27943 | 9365 ft | 254 kts | 269° |
| 2026-04-11 09:59 | 46.19165 | -63.30510 | 10192 ft | 258 kts | 269° |
| 2026-04-11 09:59 | 46.19359 | -63.33090 | 10999 ft | 260 kts | 269° |
| 2026-04-11 09:59 | 46.19525 | -63.35696 | 11811 ft | 262 kts | 268° |
| 2026-04-11 09:59 | 46.19668 | -63.38412 | 12179 ft | 282 kts | 268° |
| 2026-04-11 10:00 | 46.19821 | -63.41328 | 12562 ft | 300 kts | 268° |
| 2026-04-11 10:00 | 46.19982 | -63.44414 | 13042 ft | 313 kts | 268° |
| 2026-04-11 10:00 | 46.20144 | -63.47561 | 13836 ft | 317 kts | 268° |
| 2026-04-11 10:00 | 46.20303 | -63.50761 | 14533 ft | 321 kts | 268° |
| 2026-04-11 10:01 | 46.20465 | -63.53951 | 15216 ft | 324 kts | 269° |
| 2026-04-11 10:01 | 46.20629 | -63.57213 | 15902 ft | 328 kts | 269° |
| 2026-04-11 10:01 | 46.20794 | -63.60522 | 16579 ft | 331 kts | 269° |
| 2026-04-11 10:01 | 46.20959 | -63.63867 | 17237 ft | 335 kts | 269° |
| 2026-04-11 10:02 | 46.21124 | -63.67243 | 17866 ft | 339 kts | 269° |
| 2026-04-11 10:02 | 46.21290 | -63.70660 | 18477 ft | 343 kts | 269° |
| 2026-04-11 10:02 | 46.21459 | -63.74108 | 19047 ft | 345 kts | 269° |
| 2026-04-11 10:02 | 46.21625 | -63.77579 | 19601 ft | 347 kts | 269° |
| 2026-04-11 10:03 | 46.21793 | -63.81028 | 20150 ft | 349 kts | 269° |
| 2026-04-11 10:03 | 46.21962 | -63.84548 | 20690 ft | 351 kts | 269° |
| 2026-04-11 10:03 | 46.22132 | -63.88087 | 21223 ft | 354 kts | 269° |
| 2026-04-11 10:03 | 46.22300 | -63.91656 | 21742 ft | 356 kts | 269° |
| 2026-04-11 10:04 | 46.22465 | -63.95184 | 22230 ft | 358 kts | 269° |
| 2026-04-11 10:04 | 46.22634 | -63.98790 | 22735 ft | 360 kts | 269° |
| 2026-04-11 10:04 | 46.22804 | -64.02417 | 23226 ft | 362 kts | 269° |
| 2026-04-11 10:04 | 46.22972 | -64.06069 | 23675 ft | 364 kts | 269° |
| 2026-04-11 10:05 | 46.23139 | -64.09690 | 24090 ft | 365 kts | 269° |
| 2026-04-11 10:05 | 46.23304 | -64.13357 | 24495 ft | 366 kts | 269° |
| 2026-04-11 10:05 | 46.23470 | -64.17033 | 24896 ft | 367 kts | 269° |
| 2026-04-11 10:05 | 46.23635 | -64.20673 | 25280 ft | 368 kts | 268° |
| 2026-04-11 10:06 | 46.23800 | -64.24363 | 25659 ft | 369 kts | 268° |
| 2026-04-11 10:06 | 46.23963 | -64.28063 | 26021 ft | 370 kts | 268° |
| 2026-04-11 10:06 | 46.24125 | -64.31777 | 26376 ft | 371 kts | 268° |
| 2026-04-11 10:06 | 46.24288 | -64.35500 | 26732 ft | 371 kts | 268° |
| 2026-04-11 10:07 | 46.24451 | -64.39239 | 27083 ft | 372 kts | 268° |
| 2026-04-11 10:07 | 46.24611 | -64.42976 | 27426 ft | 373 kts | 268° |
| 2026-04-11 10:07 | 46.24768 | -64.46677 | 27736 ft | 374 kts | 268° |
| 2026-04-11 10:07 | 46.24929 | -64.50434 | 28062 ft | 374 kts | 268° |
| 2026-04-11 10:08 | 46.25086 | -64.54198 | 28373 ft | 375 kts | 268° |
| 2026-04-11 10:08 | 46.25243 | -64.57978 | 28669 ft | 376 kts | 268° |
| 2026-04-11 10:08 | 46.25398 | -64.61757 | 28953 ft | 377 kts | 268° |
| 2026-04-11 10:08 | 46.25552 | -64.65494 | 29238 ft | 377 kts | 267° |
| 2026-04-11 10:09 | 46.25707 | -64.69280 | 29632 ft | 375 kts | 267° |
| 2026-04-11 10:09 | 46.25859 | -64.72984 | 30305 ft | 365 kts | 267° |
| 2026-04-11 10:09 | 46.26005 | -64.76643 | 30633 ft | 364 kts | 267° |
| 2026-04-11 10:09 | 46.26148 | -64.80298 | 30878 ft | 364 kts | 267° |
| 2026-04-11 10:10 | 46.26291 | -64.83947 | 31131 ft | 364 kts | 267° |
| 2026-04-11 10:10 | 46.26432 | -64.87596 | 31357 ft | 364 kts | 267° |
| 2026-04-11 10:10 | 46.26572 | -64.91241 | 31598 ft | 363 kts | 266° |
| 2026-04-11 10:10 | 46.26712 | -64.94896 | 31846 ft | 363 kts | 266° |
| 2026-04-11 10:11 | 46.26850 | -64.98545 | 32074 ft | 364 kts | 266° |
| 2026-04-11 10:11 | 46.26987 | -65.02194 | 32324 ft | 364 kts | 266° |
| 2026-04-11 10:11 | 46.27123 | -65.05842 | 32527 ft | 364 kts | 266° |
| 2026-04-11 10:11 | 46.27254 | -65.09452 | 32750 ft | 364 kts | 266° |
| 2026-04-11 10:12 | 46.27389 | -65.13110 | 32998 ft | 363 kts | 266° |
| 2026-04-11 10:12 | 46.27417 | -65.16748 | 33204 ft | 362 kts | 263° |
| 2026-04-11 10:12 | 46.27351 | -65.20381 | 33398 ft | 361 kts | 262° |
| 2026-04-11 10:12 | 46.27207 | -65.23988 | 33627 ft | 359 kts | 261° |
| 2026-04-11 10:13 | 46.27040 | -65.27593 | 33843 ft | 359 kts | 261° |
| 2026-04-11 10:13 | 46.26878 | -65.31201 | 34039 ft | 360 kts | 261° |
| 2026-04-11 10:13 | 46.26721 | -65.34813 | 34197 ft | 360 kts | 261° |
| 2026-04-11 10:13 | 46.26564 | -65.38423 | 34367 ft | 360 kts | 261° |
| 2026-04-11 10:14 | 46.26417 | -65.41994 | 34536 ft | 360 kts | 262° |
| 2026-04-11 10:14 | 46.26275 | -65.45621 | 34706 ft | 360 kts | 262° |
| 2026-04-11 10:14 | 46.26131 | -65.49239 | 34871 ft | 360 kts | 262° |
| 2026-04-11 10:14 | 46.25990 | -65.52852 | 35028 ft | 360 kts | 262° |
| 2026-04-11 10:15 | 46.25846 | -65.56475 | 35193 ft | 360 kts | 262° |
| 2026-04-11 10:15 | 46.25605 | -65.62488 | 35440 ft | 361 kts | 262° |
| 2026-04-11 10:15 | 46.25456 | -65.66119 | 35607 ft | 361 kts | 262° |
| 2026-04-11 10:16 | 46.25259 | -65.70929 | 35802 ft | 362 kts | 262° |
| 2026-04-11 10:16 | 46.25109 | -65.74562 | 35964 ft | 362 kts | 262° |
| 2026-04-11 10:16 | 46.25005 | -65.77011 | 36076 ft | 361 kts | 262° |
| 2026-04-11 10:16 | 46.24854 | -65.80641 | 36235 ft | 361 kts | 262° |
| 2026-04-11 10:17 | 46.24703 | -65.84222 | 36381 ft | 362 kts | 262° |
| 2026-04-11 10:17 | 46.24548 | -65.87847 | 36542 ft | 362 kts | 262° |
| 2026-04-11 10:17 | 46.24392 | -65.91476 | 36709 ft | 362 kts | 263° |
| 2026-04-11 10:17 | 46.24241 | -65.95113 | 36864 ft | 363 kts | 263° |
| 2026-04-11 10:18 | 46.24092 | -65.98748 | 37029 ft | 362 kts | 263° |
| 2026-04-11 10:18 | 46.23930 | -66.02381 | 37190 ft | 362 kts | 263° |
| 2026-04-11 10:18 | 46.23768 | -66.06025 | 37339 ft | 362 kts | 263° |
| 2026-04-11 10:19 | 46.23444 | -66.13290 | 37584 ft | 363 kts | 263° |
| 2026-04-11 10:19 | 46.23280 | -66.16928 | 37742 ft | 363 kts | 263° |
| 2026-04-11 10:19 | 46.23115 | -66.20566 | 37851 ft | 363 kts | 263° |
| 2026-04-11 10:20 | 46.22780 | -66.27872 | 37978 ft | 367 kts | 263° |
| 2026-04-11 10:20 | 46.22438 | -66.35233 | 37996 ft | 367 kts | 263° |
| 2026-04-11 10:21 | 46.22092 | -66.42599 | 38001 ft | 368 kts | 263° |
| 2026-04-11 10:21 | 46.21778 | -66.49939 | 38002 ft | 369 kts | 265° |
| 2026-04-11 10:22 | 46.21551 | -66.57369 | 38003 ft | 370 kts | 264° |
| 2026-04-11 10:22 | 46.21292 | -66.64807 | 38010 ft | 371 kts | 264° |
| 2026-04-11 10:23 | 46.21035 | -66.72273 | 38015 ft | 373 kts | 264° |
| 2026-04-11 10:23 | 46.20772 | -66.79719 | 38007 ft | 374 kts | 264° |
| 2026-04-11 10:24 | 46.20500 | -66.87233 | 38007 ft | 374 kts | 264° |
| 2026-04-11 10:24 | 46.20220 | -66.94716 | 38002 ft | 375 kts | 264° |
| 2026-04-11 10:25 | 46.19936 | -67.02249 | 38018 ft | 376 kts | 264° |
| 2026-04-11 10:25 | 46.19649 | -67.09795 | 38014 ft | 376 kts | 264° |
| 2026-04-11 10:26 | 46.19359 | -67.17356 | 38018 ft | 377 kts | 264° |
| 2026-04-11 10:26 | 46.19064 | -67.24876 | 38017 ft | 378 kts | 264° |
| 2026-04-11 10:27 | 46.18760 | -67.32457 | 38021 ft | 378 kts | 264° |
| 2026-04-11 10:27 | 46.18451 | -67.40053 | 38012 ft | 379 kts | 264° |
| 2026-04-11 10:28 | 46.18137 | -67.47656 | 38021 ft | 380 kts | 264° |
| 2026-04-11 10:28 | 46.17820 | -67.55269 | 38011 ft | 380 kts | 264° |
| 2026-04-11 10:29 | 46.17497 | -67.62848 | 38005 ft | 381 kts | 264° |
| 2026-04-11 10:29 | 46.17166 | -67.70485 | 37991 ft | 381 kts | 264° |
| 2026-04-11 10:30 | 46.16834 | -67.78123 | 38003 ft | 382 kts | 264° |
| 2026-04-11 10:30 | 46.16490 | -67.85773 | 37996 ft | 382 kts | 264° |
| 2026-04-11 10:31 | 46.16132 | -67.93434 | 38000 ft | 383 kts | 264° |
| 2026-04-11 10:31 | 46.15783 | -68.01101 | 38006 ft | 383 kts | 264° |
| 2026-04-11 10:32 | 46.15428 | -68.08771 | 38019 ft | 383 kts | 264° |
| 2026-04-11 10:32 | 46.15067 | -68.16444 | 38022 ft | 384 kts | 264° |
| 2026-04-11 10:33 | 46.14699 | -68.24125 | 38042 ft | 384 kts | 264° |
| 2026-04-11 10:33 | 46.14327 | -68.31817 | 38051 ft | 384 kts | 264° |
| 2026-04-11 10:34 | 46.13952 | -68.39445 | 38044 ft | 384 kts | 264° |
| 2026-04-11 10:34 | 46.13570 | -68.47116 | 38038 ft | 383 kts | 264° |
| 2026-04-11 10:35 | 46.13183 | -68.54799 | 38048 ft | 383 kts | 264° |
| 2026-04-11 10:35 | 46.12792 | -68.62419 | 38052 ft | 383 kts | 264° |
| 2026-04-11 10:36 | 46.12394 | -68.70085 | 38055 ft | 383 kts | 264° |
| 2026-04-11 10:36 | 46.11993 | -68.77748 | 38050 ft | 382 kts | 264° |
| 2026-04-11 10:37 | 46.11588 | -68.85341 | 38048 ft | 382 kts | 264° |
| 2026-04-11 10:37 | 46.11176 | -68.92980 | 38054 ft | 382 kts | 264° |
| 2026-04-11 10:38 | 46.10762 | -69.00620 | 38060 ft | 382 kts | 264° |
| 2026-04-11 10:38 | 46.10127 | -69.12031 | 38056 ft | 381 kts | 264° |
| 2026-04-11 10:39 | 46.09699 | -69.19680 | 38060 ft | 381 kts | 264° |
| 2026-04-11 10:39 | 46.09267 | -69.27268 | 38059 ft | 381 kts | 264° |
| 2026-04-11 10:40 | 46.08828 | -69.34893 | 38071 ft | 381 kts | 264° |
| 2026-04-11 10:40 | 46.08385 | -69.42485 | 38064 ft | 381 kts | 264° |
| 2026-04-11 10:41 | 46.07936 | -69.50105 | 38072 ft | 381 kts | 264° |
| 2026-04-11 10:41 | 46.07482 | -69.57725 | 38064 ft | 381 kts | 264° |
| 2026-04-11 10:42 | 46.07024 | -69.65338 | 38071 ft | 382 kts | 264° |
| 2026-04-11 10:42 | 46.06558 | -69.72962 | 38074 ft | 382 kts | 264° |
| 2026-04-11 10:43 | 46.06118 | -69.80613 | 38196 ft | 389 kts | 263° |
| 2026-04-11 10:43 | 46.05881 | -69.84469 | 38136 ft | 391 kts | 263° |
| 2026-04-11 10:44 | 46.05370 | -69.92290 | 38100 ft | 393 kts | 262° |
| 2026-04-11 10:44 | 46.04862 | -70.00160 | 38102 ft | 396 kts | 263° |
| 2026-04-11 10:45 | 46.04363 | -70.08059 | 38101 ft | 397 kts | 263° |
| 2026-04-11 10:45 | 46.03851 | -70.16000 | 38102 ft | 398 kts | 263° |
| 2026-04-11 10:46 | 46.03332 | -70.23893 | 38108 ft | 398 kts | 263° |
| 2026-04-11 10:46 | 46.02805 | -70.31861 | 38110 ft | 399 kts | 263° |
| 2026-04-11 10:47 | 46.02278 | -70.39769 | 38107 ft | 400 kts | 263° |
| 2026-04-11 10:47 | 46.01740 | -70.47746 | 38115 ft | 399 kts | 263° |
| 2026-04-11 10:48 | 46.01197 | -70.55703 | 38115 ft | 399 kts | 263° |
| 2026-04-11 10:48 | 46.00651 | -70.63599 | 38123 ft | 398 kts | 263° |
| 2026-04-11 10:49 | 46.00100 | -70.71522 | 38124 ft | 398 kts | 263° |
| 2026-04-11 10:49 | 45.99542 | -70.79470 | 37660 ft | 399 kts | 262° |
| 2026-04-11 10:49 | 45.99265 | -70.83407 | 37072 ft | 400 kts | 262° |
| 2026-04-11 10:50 | 45.99024 | -70.87400 | 36496 ft | 401 kts | 264° |
| 2026-04-11 10:50 | 45.98904 | -70.91415 | 35927 ft | 402 kts | 266° |
| 2026-04-11 10:50 | 45.98853 | -70.95445 | 35341 ft | 403 kts | 266° |
| 2026-04-11 10:50 | 45.98807 | -70.99493 | 34760 ft | 403 kts | 266° |
| 2026-04-11 10:51 | 45.98758 | -71.03533 | 34179 ft | 404 kts | 266° |
| 2026-04-11 10:51 | 45.98682 | -71.07522 | 33468 ft | 405 kts | 265° |
| 2026-04-11 10:51 | 45.98599 | -71.11602 | 32724 ft | 406 kts | 266° |
| 2026-04-11 10:51 | 45.98508 | -71.15671 | 31983 ft | 408 kts | 266° |
| 2026-04-11 10:52 | 45.98418 | -71.19753 | 31301 ft | 408 kts | 266° |
| 2026-04-11 10:52 | 45.98328 | -71.23769 | 30805 ft | 404 kts | 266° |
| 2026-04-11 10:52 | 45.98230 | -71.27802 | 30330 ft | 401 kts | 266° |
| 2026-04-11 10:52 | 45.98137 | -71.31800 | 29827 ft | 397 kts | 266° |
| 2026-04-11 10:53 | 45.98042 | -71.35757 | 29340 ft | 394 kts | 266° |
| 2026-04-11 10:53 | 45.97947 | -71.39681 | 28874 ft | 390 kts | 266° |
| 2026-04-11 10:53 | 45.97852 | -71.43535 | 28424 ft | 387 kts | 266° |
| 2026-04-11 10:53 | 45.97756 | -71.47400 | 27971 ft | 384 kts | 266° |
| 2026-04-11 10:54 | 45.97658 | -71.51188 | 27542 ft | 381 kts | 266° |
| 2026-04-11 10:54 | 45.97548 | -71.54987 | 27105 ft | 377 kts | 266° |
| 2026-04-11 10:54 | 45.97423 | -71.58736 | 26284 ft | 373 kts | 266° |
| 2026-04-11 10:54 | 45.97296 | -71.62445 | 25626 ft | 369 kts | 266° |
| 2026-04-11 10:55 | 45.97184 | -71.66067 | 25051 ft | 365 kts | 267° |
| 2026-04-11 10:55 | 45.97082 | -71.69704 | 24494 ft | 361 kts | 267° |
| 2026-04-11 10:55 | 45.96980 | -71.73309 | 23993 ft | 359 kts | 267° |
| 2026-04-11 10:55 | 45.96879 | -71.76884 | 23524 ft | 355 kts | 267° |
| 2026-04-11 10:56 | 45.96784 | -71.80383 | 23021 ft | 353 kts | 268° |
| 2026-04-11 10:56 | 45.96682 | -71.83898 | 22542 ft | 350 kts | 268° |
| 2026-04-11 10:56 | 45.96584 | -71.87385 | 22059 ft | 347 kts | 268° |
| 2026-04-11 10:56 | 45.96484 | -71.90835 | 21610 ft | 344 kts | 268° |
| 2026-04-11 10:57 | 45.96382 | -71.94265 | 21172 ft | 341 kts | 268° |
| 2026-04-11 10:57 | 45.96282 | -71.97624 | 20733 ft | 338 kts | 268° |
| 2026-04-11 10:57 | 45.96185 | -72.00998 | 20311 ft | 336 kts | 268° |
| 2026-04-11 10:57 | 45.96081 | -72.04359 | 19902 ft | 334 kts | 268° |
| 2026-04-11 10:58 | 45.95983 | -72.07634 | 19522 ft | 331 kts | 268° |
| 2026-04-11 10:58 | 45.95880 | -72.10943 | 19121 ft | 329 kts | 268° |
| 2026-04-11 10:58 | 45.95777 | -72.14215 | 18738 ft | 327 kts | 268° |
| 2026-04-11 10:58 | 45.95675 | -72.17482 | 18337 ft | 324 kts | 268° |
| 2026-04-11 10:59 | 45.95577 | -72.20669 | 17917 ft | 322 kts | 268° |
| 2026-04-11 10:59 | 45.95472 | -72.23875 | 17510 ft | 319 kts | 268° |
| 2026-04-11 10:59 | 45.95369 | -72.27057 | 17072 ft | 317 kts | 268° |
| 2026-04-11 10:59 | 45.95267 | -72.30216 | 16638 ft | 315 kts | 268° |
| 2026-04-11 11:00 | 45.95165 | -72.33350 | 16192 ft | 313 kts | 268° |
| 2026-04-11 11:00 | 45.95061 | -72.36458 | 15754 ft | 310 kts | 268° |
| 2026-04-11 11:00 | 45.94878 | -72.39538 | 15280 ft | 310 kts | 259° |
| 2026-04-11 11:00 | 45.94164 | -72.42472 | 14868 ft | 310 kts | 251° |
| 2026-04-11 11:01 | 45.93275 | -72.45296 | 14447 ft | 310 kts | 248° |
| 2026-04-11 11:01 | 45.92276 | -72.47996 | 14023 ft | 309 kts | 245° |
| 2026-04-11 11:01 | 45.91229 | -72.50692 | 13540 ft | 308 kts | 245° |
| 2026-04-11 11:01 | 45.90180 | -72.53366 | 13060 ft | 307 kts | 245° |
| 2026-04-11 11:02 | 45.89147 | -72.56055 | 12562 ft | 305 kts | 246° |
| 2026-04-11 11:02 | 45.88157 | -72.58699 | 12082 ft | 304 kts | 246° |
| 2026-04-11 11:02 | 45.87159 | -72.61366 | 11537 ft | 303 kts | 246° |
| 2026-04-11 11:02 | 45.86184 | -72.63964 | 11764 ft | 276 kts | 246° |
| 2026-04-11 11:03 | 45.85292 | -72.66352 | 12051 ft | 277 kts | 247° |
| 2026-04-11 11:03 | 45.84383 | -72.68856 | 11629 ft | 279 kts | 247° |
| 2026-04-11 11:03 | 45.83786 | -72.70471 | 11492 ft | 273 kts | 247° |
| 2026-04-11 11:03 | 45.82611 | -72.73606 | 11269 ft | 265 kts | 247° |
| 2026-04-11 11:04 | 45.82022 | -72.75166 | 11156 ft | 260 kts | 247° |
| 2026-04-11 11:04 | 45.81173 | -72.77405 | 10993 ft | 258 kts | 247° |
| 2026-04-11 11:04 | 45.80301 | -72.79684 | 10841 ft | 260 kts | 246° |
| 2026-04-11 11:04 | 45.79432 | -72.81974 | 10702 ft | 262 kts | 246° |
| 2026-04-11 11:05 | 45.78563 | -72.84275 | 10543 ft | 262 kts | 246° |
| 2026-04-11 11:05 | 45.77705 | -72.86546 | 10409 ft | 260 kts | 247° |
| 2026-04-11 11:05 | 45.76841 | -72.88831 | 10126 ft | 260 kts | 247° |
| 2026-04-11 11:05 | 45.75982 | -72.91105 | 9819 ft | 259 kts | 247° |
| 2026-04-11 11:06 | 45.75123 | -72.93377 | 9510 ft | 258 kts | 246° |
| 2026-04-11 11:06 | 45.74266 | -72.95646 | 9207 ft | 258 kts | 246° |
| 2026-04-11 11:06 | 45.73412 | -72.97898 | 8899 ft | 257 kts | 246° |
| 2026-04-11 11:06 | 45.72558 | -73.00140 | 8595 ft | 256 kts | 246° |
| 2026-04-11 11:07 | 45.71830 | -73.02414 | 8264 ft | 251 kts | 259° |
| 2026-04-11 11:07 | 45.71490 | -73.04855 | 7976 ft | 249 kts | 264° |
| 2026-04-11 11:07 | 45.71256 | -73.07303 | 7659 ft | 248 kts | 265° |
| 2026-04-11 11:07 | 45.71039 | -73.09758 | 7358 ft | 247 kts | 265° |
| 2026-04-11 11:08 | 45.70825 | -73.12172 | 7043 ft | 247 kts | 264° |
| 2026-04-11 11:08 | 45.70458 | -73.14587 | 6739 ft | 248 kts | 257° |
| 2026-04-11 11:08 | 45.69961 | -73.16963 | 6419 ft | 249 kts | 255° |
| 2026-04-11 11:08 | 45.69423 | -73.19325 | 6111 ft | 249 kts | 255° |
| 2026-04-11 11:09 | 45.68883 | -73.21684 | 5777 ft | 249 kts | 255° |
| 2026-04-11 11:09 | 45.68348 | -73.24016 | 5456 ft | 250 kts | 255° |
| 2026-04-11 11:09 | 45.67822 | -73.26387 | 5167 ft | 249 kts | 256° |
| 2026-04-11 11:09 | 45.67308 | -73.28761 | 4863 ft | 249 kts | 256° |
| 2026-04-11 11:10 | 45.66796 | -73.31134 | 4571 ft | 248 kts | 256° |
| 2026-04-11 11:10 | 45.66295 | -73.33460 | 4285 ft | 248 kts | 256° |
| 2026-04-11 11:10 | 45.65790 | -73.35807 | 4046 ft | 247 kts | 256° |
| 2026-04-11 11:10 | 45.65286 | -73.38150 | 3802 ft | 246 kts | 256° |
| 2026-04-11 11:11 | 45.64784 | -73.40488 | 3581 ft | 246 kts | 256° |
| 2026-04-11 11:11 | 45.64281 | -73.42817 | 3416 ft | 245 kts | 256° |
| 2026-04-11 11:11 | 45.63780 | -73.45148 | 3261 ft | 245 kts | 256° |
| 2026-04-11 11:11 | 45.63287 | -73.47430 | 3185 ft | 240 kts | 256° |
| 2026-04-11 11:12 | 45.62805 | -73.49642 | 3096 ft | 225 kts | 257° |
| 2026-04-11 11:12 | 45.62351 | -73.51723 | 3035 ft | 213 kts | 253° |
| 2026-04-11 11:12 | 45.61526 | -73.53409 | 3030 ft | 201 kts | 231° |
| 2026-04-11 11:12 | 45.60559 | -73.54787 | 3047 ft | 190 kts | 229° |
| 2026-04-11 11:13 | 45.59617 | -73.56020 | 3065 ft | 173 kts | 228° |
| 2026-04-11 11:13 | 45.58761 | -73.57101 | 3035 ft | 154 kts | 227° |
| 2026-04-11 11:13 | 45.57978 | -73.58077 | 2949 ft | 150 kts | 229° |
| 2026-04-11 11:13 | 45.57225 | -73.59052 | 2788 ft | 140 kts | 230° |
| 2026-04-11 11:14 | 45.56522 | -73.59971 | 2567 ft | 137 kts | 231° |
| 2026-04-11 11:14 | 45.55815 | -73.60905 | 2399 ft | 140 kts | 231° |
| 2026-04-11 11:14 | 45.55091 | -73.61874 | 2204 ft | 143 kts | 231° |
| 2026-04-11 11:14 | 45.54368 | -73.62828 | 2012 ft | 140 kts | 230° |
| 2026-04-11 11:15 | 45.53646 | -73.63773 | 1802 ft | 141 kts | 230° |
| 2026-04-11 11:15 | 45.52938 | -73.64699 | 1583 ft | 139 kts | 230° |
| 2026-04-11 11:15 | 45.52230 | -73.65625 | 1370 ft | 137 kts | 230° |
| 2026-04-11 11:15 | 45.51529 | -73.66540 | 1153 ft | 136 kts | 229° |
| 2026-04-11 11:16 | 45.50833 | -73.67462 | 980 ft | 136 kts | 228° |
| 2026-04-11 11:16 | 45.50145 | -73.68389 | 809 ft | 136 kts | 227° |
| 2026-04-11 11:16 | 45.49454 | -73.69288 | 635 ft | 135 kts | 226° |
| 2026-04-11 11:16 | 45.48760 | -73.70202 | 463 ft | 137 kts | 226° |
| 2026-04-11 11:17 | 45.48060 | -73.71129 | 277 ft | 136 kts | 227° |
| 2026-04-11 11:17 | 45.47368 | -73.72038 | 124 ft | 131 kts | 226° |
| 2026-04-11 11:17 | 45.46802 | -73.72784 | 115 ft | 90 kts | 221° |
| 2026-04-11 11:17 | 45.46446 | -73.73252 | 110 ft | 56 kts | 223° |
| 2026-04-11 11:18 | 45.46189 | -73.73589 | 107 ft | 43 kts | 222° |
| 2026-04-11 11:18 | 45.46029 | -73.73797 | 105 ft | 22 kts | 222° |
| 2026-04-11 11:18 | 45.45923 | -73.73937 | 104 ft | 17 kts | 223° |
| 2026-04-11 11:18 | 45.45864 | -73.74036 | 102 ft | 12 kts | 262° |
| 2026-04-11 11:19 | 45.45899 | -73.74125 | 102 ft | 7 kts | 311° |
| 2026-04-11 11:19 | 45.45935 | -73.74183 | 101 ft | 8 kts | 313° |
| 2026-04-11 11:19 | 45.45967 | -73.74246 | 101 ft | 7 kts | 283° |
| 2026-04-11 11:19 | 45.45967 | -73.74290 | 101 ft | 4 kts | 265° |
| 2026-04-11 11:20 | 45.45962 | -73.74324 | 101 ft | 4 kts | 247° |
| 2026-04-11 11:20 | 45.45947 | -73.74350 | 102 ft | 3 kts | 216° |
| 2026-04-11 11:20 | 45.45919 | -73.74372 | 102 ft | 5 kts | 205° |
| 2026-04-11 11:20 | 45.45897 | -73.74386 | 103 ft | 2 kts | 205° |
| 2026-04-11 11:21 | 45.45893 | -73.74389 | 103 ft | 0 kts | 205° |